sensor_id;sensor_type;location;lat;lon;timestamp;temperature;humidity
10247;DHT22;5168;47.854;7.944;2023-07-28T00:01:08;14.60;99.90
10247;DHT22;5168;47.854;7.944;2023-07-28T00:05:59;15.00;99.90
10247;DHT22;5168;47.854;7.944;2023-07-28T00:08:25;14.60;99.90
10247;DHT22;5168;47.854;7.944;2023-07-28T00:10:50;14.50;99.90
10247;DHT22;5168;47.854;7.944;2023-07-28T00:15:42;14.20;99.90
10247;DHT22;5168;47.854;7.944;2023-07-28T00:18:07;14.10;99.90
10247;DHT22;5168;47.854;7.944;2023-07-28T00:20:33;15.00;99.90
10247;DHT22;5168;47.854;7.944;2023-07-28T00:25:24;15.00;99.90
10247;DHT22;5168;47.854;7.944;2023-07-28T00:27:50;15.10;99.90
10247;DHT22;5168;47.854;7.944;2023-07-28T00:30:16;14.00;99.90
10247;DHT22;5168;47.854;7.944;2023-07-28T00:32:41;14.60;99.90
10247;DHT22;5168;47.854;7.944;2023-07-28T00:35:07;14.80;99.90
10247;DHT22;5168;47.854;7.944;2023-07-28T00:39:59;14.30;99.90
10247;DHT22;5168;47.854;7.944;2023-07-28T00:42:24;15.00;99.90
10247;DHT22;5168;47.854;7.944;2023-07-28T00:44:50;14.90;99.90
10247;DHT22;5168;47.854;7.944;2023-07-28T00:52:09;14.70;99.90
10247;DHT22;5168;47.854;7.944;2023-07-28T00:57:01;14.90;99.90
10247;DHT22;5168;47.854;7.944;2023-07-28T01:01:53;15.20;99.90
10247;DHT22;5168;47.854;7.944;2023-07-28T01:04:19;15.30;99.90
10247;DHT22;5168;47.854;7.944;2023-07-28T01:07:09;15.00;99.90
10247;DHT22;5168;47.854;7.944;2023-07-28T01:10:11;15.00;99.90
10247;DHT22;5168;47.854;7.944;2023-07-28T01:12:38;14.70;99.90
10247;DHT22;5168;47.854;7.944;2023-07-28T01:15:04;14.60;99.90
10247;DHT22;5168;47.854;7.944;2023-07-28T01:17:29;15.30;99.90
10247;DHT22;5168;47.854;7.944;2023-07-28T01:19:55;15.10;99.90
10247;DHT22;5168;47.854;7.944;2023-07-28T01:28:16;14.60;99.90
10247;DHT22;5168;47.854;7.944;2023-07-28T01:30:42;15.00;99.90
10247;DHT22;5168;47.854;7.944;2023-07-28T01:33:07;14.90;99.90
10247;DHT22;5168;47.854;7.944;2023-07-28T01:35:35;14.70;99.90
10247;DHT22;5168;47.854;7.944;2023-07-28T01:40:27;15.30;99.90
10247;DHT22;5168;47.854;7.944;2023-07-28T01:42:52;15.50;99.90
10247;DHT22;5168;47.854;7.944;2023-07-28T01:45:18;15.20;99.90
10247;DHT22;5168;47.854;7.944;2023-07-28T01:50:09;15.40;99.90
10247;DHT22;5168;47.854;7.944;2023-07-28T01:52:35;15.60;99.90
10247;DHT22;5168;47.854;7.944;2023-07-28T01:55:00;15.60;99.90
10247;DHT22;5168;47.854;7.944;2023-07-28T01:57:27;15.50;99.90
10247;DHT22;5168;47.854;7.944;2023-07-28T01:59:54;15.50;99.90
10247;DHT22;5168;47.854;7.944;2023-07-28T02:02:19;15.80;99.90
10247;DHT22;5168;47.854;7.944;2023-07-28T02:04:45;15.90;99.90
10247;DHT22;5168;47.854;7.944;2023-07-28T02:07:11;15.20;99.90
10247;DHT22;5168;47.854;7.944;2023-07-28T02:14:28;15.70;99.90
10247;DHT22;5168;47.854;7.944;2023-07-28T02:16:54;15.30;99.90
10247;DHT22;5168;47.854;7.944;2023-07-28T02:19:19;15.90;99.90
10247;DHT22;5168;47.854;7.944;2023-07-28T02:26:37;15.70;99.90
10247;DHT22;5168;47.854;7.944;2023-07-28T02:29:02;15.50;99.90
10247;DHT22;5168;47.854;7.944;2023-07-28T02:31:28;15.10;99.90
10247;DHT22;5168;47.854;7.944;2023-07-28T02:38:45;15.20;99.90
10247;DHT22;5168;47.854;7.944;2023-07-28T02:41:11;15.50;99.90
10247;DHT22;5168;47.854;7.944;2023-07-28T02:43:37;15.20;99.90
10247;DHT22;5168;47.854;7.944;2023-07-28T02:46:03;15.40;99.90
10247;DHT22;5168;47.854;7.944;2023-07-28T02:55:47;15.50;99.90
10247;DHT22;5168;47.854;7.944;2023-07-28T02:58:13;16.00;99.90
10247;DHT22;5168;47.854;7.944;2023-07-28T03:00:40;16.20;99.90
10247;DHT22;5168;47.854;7.944;2023-07-28T03:03:07;15.50;99.90
10247;DHT22;5168;47.854;7.944;2023-07-28T03:15:17;15.80;99.90
10247;DHT22;5168;47.854;7.944;2023-07-28T03:17:42;15.20;99.90
10247;DHT22;5168;47.854;7.944;2023-07-28T03:20:08;15.20;99.90
10247;DHT22;5168;47.854;7.944;2023-07-28T03:22:34;16.00;99.90
10247;DHT22;5168;47.854;7.944;2023-07-28T03:29:51;15.90;99.90
10247;DHT22;5168;47.854;7.944;2023-07-28T03:32:17;15.10;99.90
10247;DHT22;5168;47.854;7.944;2023-07-28T03:34:44;15.90;99.90
10247;DHT22;5168;47.854;7.944;2023-07-28T03:37:09;15.60;99.90
10247;DHT22;5168;47.854;7.944;2023-07-28T03:42:01;15.50;99.90
10247;DHT22;5168;47.854;7.944;2023-07-28T03:46:52;15.70;99.90
10247;DHT22;5168;47.854;7.944;2023-07-28T03:49:18;14.90;99.90
10247;DHT22;5168;47.854;7.944;2023-07-28T03:51:43;15.40;99.90
10247;DHT22;5168;47.854;7.944;2023-07-28T04:01:27;15.20;99.90
10247;DHT22;5168;47.854;7.944;2023-07-28T04:03:52;15.10;99.90
10247;DHT22;5168;47.854;7.944;2023-07-28T04:06:18;14.90;99.90
10247;DHT22;5168;47.854;7.944;2023-07-28T04:11:10;15.00;99.90
10247;DHT22;5168;47.854;7.944;2023-07-28T04:16:01;15.40;99.90
10247;DHT22;5168;47.854;7.944;2023-07-28T04:18:27;14.80;99.90
10247;DHT22;5168;47.854;7.944;2023-07-28T04:20:53;15.10;99.90
10247;DHT22;5168;47.854;7.944;2023-07-28T04:23:18;14.80;99.90
10247;DHT22;5168;47.854;7.944;2023-07-28T04:28:10;15.10;99.90
10247;DHT22;5168;47.854;7.944;2023-07-28T04:30:36;15.00;99.90
10247;DHT22;5168;47.854;7.944;2023-07-28T04:33:01;15.50;99.90
10247;DHT22;5168;47.854;7.944;2023-07-28T04:40:19;15.10;99.90
10247;DHT22;5168;47.854;7.944;2023-07-28T04:42:44;15.20;99.90
10247;DHT22;5168;47.854;7.944;2023-07-28T04:45:10;14.80;99.90
10247;DHT22;5168;47.854;7.944;2023-07-28T04:47:36;14.90;99.90
10247;DHT22;5168;47.854;7.944;2023-07-28T04:57:19;15.20;99.90
10247;DHT22;5168;47.854;7.944;2023-07-28T04:59:45;15.30;99.90
10247;DHT22;5168;47.854;7.944;2023-07-28T05:02:13;14.80;99.90
10247;DHT22;5168;47.854;7.944;2023-07-28T05:04:39;15.00;99.90
10247;DHT22;5168;47.854;7.944;2023-07-28T05:07:04;15.60;99.90
10247;DHT22;5168;47.854;7.944;2023-07-28T05:21:43;15.30;99.90
10247;DHT22;5168;47.854;7.944;2023-07-28T05:29:00;15.80;99.90
10247;DHT22;5168;47.854;7.944;2023-07-28T05:31:26;15.00;99.90
10247;DHT22;5168;47.854;7.944;2023-07-28T05:33:51;15.90;99.90
10247;DHT22;5168;47.854;7.944;2023-07-28T05:38:45;15.30;99.90
10247;DHT22;5168;47.854;7.944;2023-07-28T05:41:13;15.80;99.90
10247;DHT22;5168;47.854;7.944;2023-07-28T05:43:38;15.70;99.90
10247;DHT22;5168;47.854;7.944;2023-07-28T05:46:04;16.30;99.90
10247;DHT22;5168;47.854;7.944;2023-07-28T05:53:21;15.70;99.90
10247;DHT22;5168;47.854;7.944;2023-07-28T05:55:47;15.90;99.90
10247;DHT22;5168;47.854;7.944;2023-07-28T05:58:14;16.10;99.90
10247;DHT22;5168;47.854;7.944;2023-07-28T06:00:39;15.80;99.90
10247;DHT22;5168;47.854;7.944;2023-07-28T06:03:07;15.90;99.90
10247;DHT22;5168;47.854;7.944;2023-07-28T06:10:24;15.80;99.90
10247;DHT22;5168;47.854;7.944;2023-07-28T06:17:41;15.90;99.90
10247;DHT22;5168;47.854;7.944;2023-07-28T06:20:08;16.60;99.90
10247;DHT22;5168;47.854;7.944;2023-07-28T06:27:28;16.30;99.90
10247;DHT22;5168;47.854;7.944;2023-07-28T06:34:48;16.10;99.90
10247;DHT22;5168;47.854;7.944;2023-07-28T06:37:14;15.90;99.90
10247;DHT22;5168;47.854;7.944;2023-07-28T06:39:39;16.00;99.90
10247;DHT22;5168;47.854;7.944;2023-07-28T06:42:05;16.30;99.90
10247;DHT22;5168;47.854;7.944;2023-07-28T06:44:31;16.00;99.90
10247;DHT22;5168;47.854;7.944;2023-07-28T06:59:07;15.80;99.90
10247;DHT22;5168;47.854;7.944;2023-07-28T07:01:33;16.00;99.90
10247;DHT22;5168;47.854;7.944;2023-07-28T07:13:42;16.20;99.90
10247;DHT22;5168;47.854;7.944;2023-07-28T07:16:15;15.60;99.90
10247;DHT22;5168;47.854;7.944;2023-07-28T07:18:42;15.40;99.90
10247;DHT22;5168;47.854;7.944;2023-07-28T07:21:08;15.70;99.90
10247;DHT22;5168;47.854;7.944;2023-07-28T07:23:34;15.80;99.90
10247;DHT22;5168;47.854;7.944;2023-07-28T07:30:54;16.20;99.90
10247;DHT22;5168;47.854;7.944;2023-07-28T07:33:21;16.00;99.90
10247;DHT22;5168;47.854;7.944;2023-07-28T07:35:46;15.50;99.90
10247;DHT22;5168;47.854;7.944;2023-07-28T07:45:31;15.30;99.90
10247;DHT22;5168;47.854;7.944;2023-07-28T07:50:23;16.40;99.90
10247;DHT22;5168;47.854;7.944;2023-07-28T08:00:08;15.90;99.90
10247;DHT22;5168;47.854;7.944;2023-07-28T08:02:34;16.70;99.90
10247;DHT22;5168;47.854;7.944;2023-07-28T08:05:00;16.80;99.90
10247;DHT22;5168;47.854;7.944;2023-07-28T08:17:11;16.80;99.90
10247;DHT22;5168;47.854;7.944;2023-07-28T08:22:04;16.70;99.90
10247;DHT22;5168;47.854;7.944;2023-07-28T08:29:22;16.20;99.90
10247;DHT22;5168;47.854;7.944;2023-07-28T08:34:13;16.80;99.90
10247;DHT22;5168;47.854;7.944;2023-07-28T08:36:39;16.80;99.90
10247;DHT22;5168;47.854;7.944;2023-07-28T08:39:05;16.80;99.90
10247;DHT22;5168;47.854;7.944;2023-07-28T08:43:56;17.30;99.90
10247;DHT22;5168;47.854;7.944;2023-07-28T08:46:22;17.70;99.90
10247;DHT22;5168;47.854;7.944;2023-07-28T08:48:48;17.50;99.90
10247;DHT22;5168;47.854;7.944;2023-07-28T08:51:14;17.50;99.90
10247;DHT22;5168;47.854;7.944;2023-07-28T08:53:40;17.50;99.90
10247;DHT22;5168;47.854;7.944;2023-07-28T08:58:32;18.50;99.90
10247;DHT22;5168;47.854;7.944;2023-07-28T09:06:02;17.60;99.90
10247;DHT22;5168;47.854;7.944;2023-07-28T09:15:47;17.60;99.90
10247;DHT22;5168;47.854;7.944;2023-07-28T09:18:15;17.60;99.90
10247;DHT22;5168;47.854;7.944;2023-07-28T09:20:42;17.60;99.90
10247;DHT22;5168;47.854;7.944;2023-07-28T09:23:08;17.50;99.90
10247;DHT22;5168;47.854;7.944;2023-07-28T09:25:37;17.80;99.90
10247;DHT22;5168;47.854;7.944;2023-07-28T09:28:04;18.30;99.90
10247;DHT22;5168;47.854;7.944;2023-07-28T09:30:47;17.20;99.90
10247;DHT22;5168;47.854;7.944;2023-07-28T09:33:28;18.00;99.90
10247;DHT22;5168;47.854;7.944;2023-07-28T09:35:54;17.20;99.90
10247;DHT22;5168;47.854;7.944;2023-07-28T09:38:22;17.40;99.90
10247;DHT22;5168;47.854;7.944;2023-07-28T09:40:48;18.00;99.90
10247;DHT22;5168;47.854;7.944;2023-07-28T09:43:14;17.30;99.90
10247;DHT22;5168;47.854;7.944;2023-07-28T09:45:40;17.80;99.90
10247;DHT22;5168;47.854;7.944;2023-07-28T09:48:09;17.80;99.90
10247;DHT22;5168;47.854;7.944;2023-07-28T09:50:37;18.40;99.90
10247;DHT22;5168;47.854;7.944;2023-07-28T09:53:04;18.70;99.90
10247;DHT22;5168;47.854;7.944;2023-07-28T09:57:58;19.00;99.90
10247;DHT22;5168;47.854;7.944;2023-07-28T10:05:20;19.30;99.90
10247;DHT22;5168;47.854;7.944;2023-07-28T10:07:48;19.50;99.90
10247;DHT22;5168;47.854;7.944;2023-07-28T10:10:14;19.30;99.90
10247;DHT22;5168;47.854;7.944;2023-07-28T10:12:47;18.50;99.90
10247;DHT22;5168;47.854;7.944;2023-07-28T10:15:15;18.80;99.90
10247;DHT22;5168;47.854;7.944;2023-07-28T10:17:47;18.70;99.90
10247;DHT22;5168;47.854;7.944;2023-07-28T10:20:33;18.80;99.90
10247;DHT22;5168;47.854;7.944;2023-07-28T10:23:12;18.30;99.90
10247;DHT22;5168;47.854;7.944;2023-07-28T10:25:39;18.60;99.90
10247;DHT22;5168;47.854;7.944;2023-07-28T10:28:06;18.80;99.90
10247;DHT22;5168;47.854;7.944;2023-07-28T10:30:51;18.80;99.90
10247;DHT22;5168;47.854;7.944;2023-07-28T10:33:31;18.80;99.90
10247;DHT22;5168;47.854;7.944;2023-07-28T10:35:58;18.30;99.90
10247;DHT22;5168;47.854;7.944;2023-07-28T10:38:34;18.90;99.90
10247;DHT22;5168;47.854;7.944;2023-07-28T10:41:07;18.60;99.90
10247;DHT22;5168;47.854;7.944;2023-07-28T10:46:01;18.50;99.90
10247;DHT22;5168;47.854;7.944;2023-07-28T10:48:27;18.60;99.90
10247;DHT22;5168;47.854;7.944;2023-07-28T10:50:54;18.50;99.90
10247;DHT22;5168;47.854;7.944;2023-07-28T10:53:19;18.70;99.90
10247;DHT22;5168;47.854;7.944;2023-07-28T10:55:45;18.60;99.90
10247;DHT22;5168;47.854;7.944;2023-07-28T11:03:03;18.40;99.90
10247;DHT22;5168;47.854;7.944;2023-07-28T11:05:30;18.50;99.90
10247;DHT22;5168;47.854;7.944;2023-07-28T11:07:58;18.40;99.90
10247;DHT22;5168;47.854;7.944;2023-07-28T11:10:24;18.40;99.90
10247;DHT22;5168;47.854;7.944;2023-07-28T11:12:51;18.50;99.90
10247;DHT22;5168;47.854;7.944;2023-07-28T11:15:18;18.30;99.90
10247;DHT22;5168;47.854;7.944;2023-07-28T11:17:46;18.70;99.90
10247;DHT22;5168;47.854;7.944;2023-07-28T11:20:20;18.80;99.90
10247;DHT22;5168;47.854;7.944;2023-07-28T11:22:57;18.10;99.90
10247;DHT22;5168;47.854;7.944;2023-07-28T11:25:25;18.00;99.90
10247;DHT22;5168;47.854;7.944;2023-07-28T11:30:19;18.10;99.90
10247;DHT22;5168;47.854;7.944;2023-07-28T11:32:46;18.60;99.90
10247;DHT22;5168;47.854;7.944;2023-07-28T11:35:13;17.80;99.90
10247;DHT22;5168;47.854;7.944;2023-07-28T11:37:42;18.10;99.90
10247;DHT22;5168;47.854;7.944;2023-07-28T11:40:09;18.40;99.90
10247;DHT22;5168;47.854;7.944;2023-07-28T11:42:45;19.00;99.90
10247;DHT22;5168;47.854;7.944;2023-07-28T11:45:16;18.80;99.90
10247;DHT22;5168;47.854;7.944;2023-07-28T11:48:02;18.60;99.90
10247;DHT22;5168;47.854;7.944;2023-07-28T11:50:31;19.10;99.90
10247;DHT22;5168;47.854;7.944;2023-07-28T11:52:59;18.80;99.90
10247;DHT22;5168;47.854;7.944;2023-07-28T11:57:53;19.60;99.90
10247;DHT22;5168;47.854;7.944;2023-07-28T12:00:28;18.80;99.90
10247;DHT22;5168;47.854;7.944;2023-07-28T12:03:08;19.40;99.90
10247;DHT22;5168;47.854;7.944;2023-07-28T12:05:42;18.80;99.90
10247;DHT22;5168;47.854;7.944;2023-07-28T12:08:37;19.00;99.90
10247;DHT22;5168;47.854;7.944;2023-07-28T12:11:02;19.00;99.90
10247;DHT22;5168;47.854;7.944;2023-07-28T12:13:28;19.40;99.90
10247;DHT22;5168;47.854;7.944;2023-07-28T12:15:54;19.00;99.90
10247;DHT22;5168;47.854;7.944;2023-07-28T12:20:49;19.00;99.90
10247;DHT22;5168;47.854;7.944;2023-07-28T12:23:20;18.60;99.90
10247;DHT22;5168;47.854;7.944;2023-07-28T12:25:46;18.40;99.90
10247;DHT22;5168;47.854;7.944;2023-07-28T12:28:12;17.80;99.90
10247;DHT22;5168;47.854;7.944;2023-07-28T12:30:38;17.70;99.90
10247;DHT22;5168;47.854;7.944;2023-07-28T12:33:05;18.20;99.90
10247;DHT22;5168;47.854;7.944;2023-07-28T12:35:32;18.90;99.90
10247;DHT22;5168;47.854;7.944;2023-07-28T12:38:00;18.10;99.90
10247;DHT22;5168;47.854;7.944;2023-07-28T12:40:27;18.10;99.90
10247;DHT22;5168;47.854;7.944;2023-07-28T12:45:21;17.90;99.90
10247;DHT22;5168;47.854;7.944;2023-07-28T12:47:50;18.20;99.90
10247;DHT22;5168;47.854;7.944;2023-07-28T12:52:41;18.60;99.90
10247;DHT22;5168;47.854;7.944;2023-07-28T13:02:25;18.20;99.90
10247;DHT22;5168;47.854;7.944;2023-07-28T13:04:51;19.40;99.90
10247;DHT22;5168;47.854;7.944;2023-07-28T13:07:16;19.20;99.90
10247;DHT22;5168;47.854;7.944;2023-07-28T13:09:43;19.10;99.90
10247;DHT22;5168;47.854;7.944;2023-07-28T13:12:09;19.40;99.90
10247;DHT22;5168;47.854;7.944;2023-07-28T13:14:35;19.30;99.90
10247;DHT22;5168;47.854;7.944;2023-07-28T13:21:52;18.60;99.90
10247;DHT22;5168;47.854;7.944;2023-07-28T13:24:18;19.00;99.90
10247;DHT22;5168;47.854;7.944;2023-07-28T13:26:44;18.70;99.90
10247;DHT22;5168;47.854;7.944;2023-07-28T13:29:09;18.30;99.90
10247;DHT22;5168;47.854;7.944;2023-07-28T13:31:35;18.70;99.90
10247;DHT22;5168;47.854;7.944;2023-07-28T13:38:52;18.90;99.90
10247;DHT22;5168;47.854;7.944;2023-07-28T13:41:21;18.60;99.90
10247;DHT22;5168;47.854;7.944;2023-07-28T13:43:46;19.10;99.90
10247;DHT22;5168;47.854;7.944;2023-07-28T13:48:38;18.00;99.90
10247;DHT22;5168;47.854;7.944;2023-07-28T13:51:04;18.40;99.90
10247;DHT22;5168;47.854;7.944;2023-07-28T13:53:30;18.70;99.90
10247;DHT22;5168;47.854;7.944;2023-07-28T14:05:41;18.40;99.90
10247;DHT22;5168;47.854;7.944;2023-07-28T14:12:58;18.70;99.90
10247;DHT22;5168;47.854;7.944;2023-07-28T14:20:16;18.50;99.90
10247;DHT22;5168;47.854;7.944;2023-07-28T14:22:41;18.80;99.90
10247;DHT22;5168;47.854;7.944;2023-07-28T14:27:33;18.60;99.90
10247;DHT22;5168;47.854;7.944;2023-07-28T14:32:24;18.10;99.90
10247;DHT22;5168;47.854;7.944;2023-07-28T14:34:50;18.80;99.90
10247;DHT22;5168;47.854;7.944;2023-07-28T14:39:42;18.80;99.90
10247;DHT22;5168;47.854;7.944;2023-07-28T14:46:59;18.30;99.90
10247;DHT22;5168;47.854;7.944;2023-07-28T14:49:25;18.40;99.90
10247;DHT22;5168;47.854;7.944;2023-07-28T14:51:54;18.70;99.90
10247;DHT22;5168;47.854;7.944;2023-07-28T14:56:45;18.30;99.90
10247;DHT22;5168;47.854;7.944;2023-07-28T15:01:37;18.20;99.90
10247;DHT22;5168;47.854;7.944;2023-07-28T15:04:03;18.40;99.90
10247;DHT22;5168;47.854;7.944;2023-07-28T15:06:30;17.70;99.90
10247;DHT22;5168;47.854;7.944;2023-07-28T15:08:56;18.70;99.90
10247;DHT22;5168;47.854;7.944;2023-07-28T15:11:21;17.70;99.90
10247;DHT22;5168;47.854;7.944;2023-07-28T15:18:39;18.30;99.90
10247;DHT22;5168;47.854;7.944;2023-07-28T15:21:04;18.30;99.90
10247;DHT22;5168;47.854;7.944;2023-07-28T15:23:29;18.60;99.90
10247;DHT22;5168;47.854;7.944;2023-07-28T15:28:24;18.20;99.90
10247;DHT22;5168;47.854;7.944;2023-07-28T15:30:50;17.70;99.90
10247;DHT22;5168;47.854;7.944;2023-07-28T15:33:18;18.10;99.90
10247;DHT22;5168;47.854;7.944;2023-07-28T15:35:44;17.80;99.90
10247;DHT22;5168;47.854;7.944;2023-07-28T15:38:10;17.40;99.90
10247;DHT22;5168;47.854;7.944;2023-07-28T15:45:27;17.50;99.90
10247;DHT22;5168;47.854;7.944;2023-07-28T15:50:19;17.20;99.90
10247;DHT22;5168;47.854;7.944;2023-07-28T15:52:44;17.60;99.90
10247;DHT22;5168;47.854;7.944;2023-07-28T16:02:32;16.50;99.90
10247;DHT22;5168;47.854;7.944;2023-07-28T16:04:57;16.50;99.90
10247;DHT22;5168;47.854;7.944;2023-07-28T16:07:26;17.10;99.90
10247;DHT22;5168;47.854;7.944;2023-07-28T16:09:52;16.50;99.90
10247;DHT22;5168;47.854;7.944;2023-07-28T16:14:47;16.80;99.90
10247;DHT22;5168;47.854;7.944;2023-07-28T16:17:12;17.00;99.90
10247;DHT22;5168;47.854;7.944;2023-07-28T16:19:38;17.30;99.90
10247;DHT22;5168;47.854;7.944;2023-07-28T16:24:29;16.30;99.90
10247;DHT22;5168;47.854;7.944;2023-07-28T16:26:55;16.50;99.90
10247;DHT22;5168;47.854;7.944;2023-07-28T16:29:21;16.70;99.90
10247;DHT22;5168;47.854;7.944;2023-07-28T16:31:46;16.30;99.90
10247;DHT22;5168;47.854;7.944;2023-07-28T16:36:38;17.00;99.90
10247;DHT22;5168;47.854;7.944;2023-07-28T16:39:03;16.50;99.90
10247;DHT22;5168;47.854;7.944;2023-07-28T16:41:29;16.70;99.90
10247;DHT22;5168;47.854;7.944;2023-07-28T16:46:20;16.20;99.90
10247;DHT22;5168;47.854;7.944;2023-07-28T16:48:46;16.40;99.90
10247;DHT22;5168;47.854;7.944;2023-07-28T16:51:12;16.90;99.90
10247;DHT22;5168;47.854;7.944;2023-07-28T16:53:37;16.70;99.90
10247;DHT22;5168;47.854;7.944;2023-07-28T16:56:03;16.90;99.90
10247;DHT22;5168;47.854;7.944;2023-07-28T17:03:21;16.30;99.90
10247;DHT22;5168;47.854;7.944;2023-07-28T17:05:47;17.10;99.90
10247;DHT22;5168;47.854;7.944;2023-07-28T17:08:13;16.40;99.90
10247;DHT22;5168;47.854;7.944;2023-07-28T17:10:38;16.50;99.90
10247;DHT22;5168;47.854;7.944;2023-07-28T17:13:04;16.40;99.90
10247;DHT22;5168;47.854;7.944;2023-07-28T17:17:55;17.10;99.90
10247;DHT22;5168;47.854;7.944;2023-07-28T17:20:21;16.70;99.90
10247;DHT22;5168;47.854;7.944;2023-07-28T17:22:46;16.80;99.90
10247;DHT22;5168;47.854;7.944;2023-07-28T17:25:12;16.40;99.90
10247;DHT22;5168;47.854;7.944;2023-07-28T17:27:37;17.10;99.90
10247;DHT22;5168;47.854;7.944;2023-07-28T17:30:05;17.10;99.90
10247;DHT22;5168;47.854;7.944;2023-07-28T17:32:31;16.20;99.90
10247;DHT22;5168;47.854;7.944;2023-07-28T17:39:48;16.50;99.90
10247;DHT22;5168;47.854;7.944;2023-07-28T17:42:14;16.50;99.90
10247;DHT22;5168;47.854;7.944;2023-07-28T17:44:41;16.80;99.90
10247;DHT22;5168;47.854;7.944;2023-07-28T17:47:07;16.00;99.90
10247;DHT22;5168;47.854;7.944;2023-07-28T17:56:51;16.00;99.90
10247;DHT22;5168;47.854;7.944;2023-07-28T18:01:43;16.30;99.90
10247;DHT22;5168;47.854;7.944;2023-07-28T18:04:09;16.50;99.90
10247;DHT22;5168;47.854;7.944;2023-07-28T18:06:35;16.20;99.90
10247;DHT22;5168;47.854;7.944;2023-07-28T18:13:53;15.90;99.90
10247;DHT22;5168;47.854;7.944;2023-07-28T18:23:36;15.90;99.90
10247;DHT22;5168;47.854;7.944;2023-07-28T18:26:02;16.10;99.90
10247;DHT22;5168;47.854;7.944;2023-07-28T18:28:27;15.90;99.90
10247;DHT22;5168;47.854;7.944;2023-07-28T18:33:19;16.00;99.90
10247;DHT22;5168;47.854;7.944;2023-07-28T18:35:52;15.40;99.90
10247;DHT22;5168;47.854;7.944;2023-07-28T18:38:19;15.70;99.90
10247;DHT22;5168;47.854;7.944;2023-07-28T18:40:45;15.80;99.90
10247;DHT22;5168;47.854;7.944;2023-07-28T18:43:10;15.10;99.90
10247;DHT22;5168;47.854;7.944;2023-07-28T18:45:36;15.80;99.90
10247;DHT22;5168;47.854;7.944;2023-07-28T18:48:02;16.20;99.90
10247;DHT22;5168;47.854;7.944;2023-07-28T18:52:53;15.80;99.90
10247;DHT22;5168;47.854;7.944;2023-07-28T18:55:19;15.30;99.90
10247;DHT22;5168;47.854;7.944;2023-07-28T18:57:44;15.90;99.90
10247;DHT22;5168;47.854;7.944;2023-07-28T19:02:39;15.40;99.90
10247;DHT22;5168;47.854;7.944;2023-07-28T19:05:06;15.90;99.90
10247;DHT22;5168;47.854;7.944;2023-07-28T19:09:58;15.70;99.90
10247;DHT22;5168;47.854;7.944;2023-07-28T19:12:23;15.30;99.90
10247;DHT22;5168;47.854;7.944;2023-07-28T19:14:49;14.90;99.90
10247;DHT22;5168;47.854;7.944;2023-07-28T19:19:43;15.80;99.90
10247;DHT22;5168;47.854;7.944;2023-07-28T19:22:09;14.90;99.90
10247;DHT22;5168;47.854;7.944;2023-07-28T19:36:48;15.20;99.90
10247;DHT22;5168;47.854;7.944;2023-07-28T19:39:14;14.80;99.90
10247;DHT22;5168;47.854;7.944;2023-07-28T19:46:31;15.50;99.90
10247;DHT22;5168;47.854;7.944;2023-07-28T19:48:57;15.30;99.90
10247;DHT22;5168;47.854;7.944;2023-07-28T19:51:22;15.00;99.90
10247;DHT22;5168;47.854;7.944;2023-07-28T19:53:49;14.70;99.90
10247;DHT22;5168;47.854;7.944;2023-07-28T19:56:16;15.10;99.90
10247;DHT22;5168;47.854;7.944;2023-07-28T19:58:42;15.00;99.90
10247;DHT22;5168;47.854;7.944;2023-07-28T20:01:07;14.70;99.90
10247;DHT22;5168;47.854;7.944;2023-07-28T20:03:33;14.40;99.90
10247;DHT22;5168;47.854;7.944;2023-07-28T20:10:50;14.40;99.90
10247;DHT22;5168;47.854;7.944;2023-07-28T20:13:16;14.30;99.90
10247;DHT22;5168;47.854;7.944;2023-07-28T20:15:41;14.90;99.90
10247;DHT22;5168;47.854;7.944;2023-07-28T20:18:07;14.50;99.90
10247;DHT22;5168;47.854;7.944;2023-07-28T20:20:34;14.30;99.90
10247;DHT22;5168;47.854;7.944;2023-07-28T20:23:00;14.80;99.90
10247;DHT22;5168;47.854;7.944;2023-07-28T20:25:26;14.50;99.90
10247;DHT22;5168;47.854;7.944;2023-07-28T20:32:45;14.40;99.90
10247;DHT22;5168;47.854;7.944;2023-07-28T20:35:10;14.50;99.90
10247;DHT22;5168;47.854;7.944;2023-07-28T20:40:02;14.30;99.90
10247;DHT22;5168;47.854;7.944;2023-07-28T20:42:32;14.10;99.90
10247;DHT22;5168;47.854;7.944;2023-07-28T20:47:24;14.10;99.90
10247;DHT22;5168;47.854;7.944;2023-07-28T20:49:49;14.60;99.90
10247;DHT22;5168;47.854;7.944;2023-07-28T20:54:42;13.90;99.90
10247;DHT22;5168;47.854;7.944;2023-07-28T20:57:09;14.10;99.90
10247;DHT22;5168;47.854;7.944;2023-07-28T21:09:19;14.20;99.90
10247;DHT22;5168;47.854;7.944;2023-07-28T21:14:12;14.50;99.90
10247;DHT22;5168;47.854;7.944;2023-07-28T21:16:38;14.00;99.90
10247;DHT22;5168;47.854;7.944;2023-07-28T21:19:06;14.00;99.90
10247;DHT22;5168;47.854;7.944;2023-07-28T21:28:49;14.70;99.90
10247;DHT22;5168;47.854;7.944;2023-07-28T21:31:18;14.80;99.90
10247;DHT22;5168;47.854;7.944;2023-07-28T21:33:46;14.40;99.90
10247;DHT22;5168;47.854;7.944;2023-07-28T21:36:13;14.80;99.90
10247;DHT22;5168;47.854;7.944;2023-07-28T21:38:39;14.60;99.90
10247;DHT22;5168;47.854;7.944;2023-07-28T21:41:05;14.20;99.90
10247;DHT22;5168;47.854;7.944;2023-07-28T21:45:57;14.60;99.90
10247;DHT22;5168;47.854;7.944;2023-07-28T21:50:48;14.90;99.90
10247;DHT22;5168;47.854;7.944;2023-07-28T21:53:14;14.50;99.90
10247;DHT22;5168;47.854;7.944;2023-07-28T21:55:40;14.90;99.90
10247;DHT22;5168;47.854;7.944;2023-07-28T22:07:52;14.90;99.90
10247;DHT22;5168;47.854;7.944;2023-07-28T22:15:11;14.90;99.90
10247;DHT22;5168;47.854;7.944;2023-07-28T22:17:37;14.50;99.90
10247;DHT22;5168;47.854;7.944;2023-07-28T22:20:03;14.50;99.90
10247;DHT22;5168;47.854;7.944;2023-07-28T22:22:28;15.20;99.90
10247;DHT22;5168;47.854;7.944;2023-07-28T22:27:20;14.60;99.90
10247;DHT22;5168;47.854;7.944;2023-07-28T22:29:46;14.50;99.90
10247;DHT22;5168;47.854;7.944;2023-07-28T22:32:19;14.50;99.90
10247;DHT22;5168;47.854;7.944;2023-07-28T22:34:44;14.40;99.90
10247;DHT22;5168;47.854;7.944;2023-07-28T22:37:10;14.50;99.90
10247;DHT22;5168;47.854;7.944;2023-07-28T22:39:35;14.70;99.90
10247;DHT22;5168;47.854;7.944;2023-07-28T22:42:01;14.40;99.90
10247;DHT22;5168;47.854;7.944;2023-07-28T22:46:52;14.60;99.90
10247;DHT22;5168;47.854;7.944;2023-07-28T22:49:18;14.50;99.90
10247;DHT22;5168;47.854;7.944;2023-07-28T22:51:44;15.00;99.90
10247;DHT22;5168;47.854;7.944;2023-07-28T23:03:54;14.30;99.90
10247;DHT22;5168;47.854;7.944;2023-07-28T23:11:12;14.60;99.90
10247;DHT22;5168;47.854;7.944;2023-07-28T23:13:37;14.40;99.90
10247;DHT22;5168;47.854;7.944;2023-07-28T23:16:03;14.20;99.90
10247;DHT22;5168;47.854;7.944;2023-07-28T23:25:47;14.70;99.90
10247;DHT22;5168;47.854;7.944;2023-07-28T23:28:13;14.50;99.90
10247;DHT22;5168;47.854;7.944;2023-07-28T23:30:39;15.00;99.90
10247;DHT22;5168;47.854;7.944;2023-07-28T23:35:31;14.70;99.90
10247;DHT22;5168;47.854;7.944;2023-07-28T23:37:57;15.00;99.90
10247;DHT22;5168;47.854;7.944;2023-07-28T23:42:49;14.90;99.90
10247;DHT22;5168;47.854;7.944;2023-07-28T23:47:41;14.50;99.90
10247;DHT22;5168;47.854;7.944;2023-07-28T23:50:06;14.30;99.90
10247;DHT22;5168;47.854;7.944;2023-07-28T23:55:02;14.00;99.90
